createdAt,value
2018-03-04T00:00:47.482Z,54.15
2018-03-04T00:03:16.401Z,49.17
2018-03-04T00:05:44.541Z,40.80
2018-03-04T00:08:12.705Z,45.60
2018-03-04T00:10:40.846Z,47.33
2018-03-04T00:13:09.000Z,46.65
2018-03-04T00:15:37.157Z,58.67
2018-03-04T00:18:05.306Z,59.72
2018-03-04T00:20:35.082Z,52.30
2018-03-04T00:23:03.228Z,46.53
2018-03-04T00:25:31.370Z,48.75
2018-03-04T00:28:00.315Z,44.50
2018-03-04T00:30:28.477Z,49.35
2018-03-04T00:32:56.641Z,48.35
2018-03-04T00:35:24.838Z,48.92
2018-03-04T00:37:52.978Z,50.75
2018-03-04T00:40:21.125Z,51.42
2018-03-04T00:42:50.055Z,46.17
2018-03-04T00:45:18.197Z,47.25
2018-03-04T00:47:46.369Z,48.13
2018-03-04T00:50:14.514Z,49.50
2018-03-04T00:52:42.662Z,51.37
2018-03-04T00:55:10.843Z,47.58
2018-03-04T00:57:39.009Z,44.72
2018-03-04T01:00:07.266Z,49.85
2018-03-04T01:02:35.454Z,50.15
2018-03-04T01:05:03.609Z,48.63
2018-03-04T01:07:31.766Z,48.58
2018-03-04T01:09:59.936Z,54.53
2018-03-04T01:12:28.078Z,65.37
2018-03-04T01:14:57.015Z,40.03
2018-03-04T01:17:25.299Z,49.83
2018-03-04T01:19:53.462Z,50.80
2018-03-04T01:22:21.631Z,47.88
2018-03-04T01:24:49.770Z,50.95
2018-03-04T01:27:18.681Z,50.83
2018-03-04T01:29:46.874Z,52.05
2018-03-04T01:32:15.051Z,46.60
2018-03-04T01:34:43.202Z,55.20
2018-03-04T01:37:11.415Z,60.92
2018-03-04T01:39:39.577Z,58.53
2018-03-04T01:42:07.738Z,47.95
2018-03-04T01:44:35.898Z,50.38
2018-03-04T01:47:04.246Z,52.53
2018-03-04T01:49:33.190Z,49.92
2018-03-04T01:52:01.350Z,50.42
2018-03-04T01:54:29.494Z,49.85
2018-03-04T01:56:57.673Z,59.72
2018-03-04T01:59:25.823Z,55.17
2018-03-04T02:01:54.726Z,44.95
2018-03-04T02:04:23.662Z,54.03
2018-03-04T02:06:51.818Z,54.65
2018-03-04T02:09:19.960Z,52.85
2018-03-04T02:11:48.898Z,47.83
2018-03-04T02:14:17.042Z,53.87
2018-03-04T02:16:45.180Z,46.92
2018-03-04T02:19:13.353Z,62.45
2018-03-04T02:21:42.258Z,56.20
2018-03-04T02:24:11.197Z,54.65
2018-03-04T02:26:39.343Z,63.17
2018-03-04T02:29:07.498Z,55.17
2018-03-04T02:31:36.423Z,70.55
2018-03-04T02:34:04.585Z,49.80
2018-03-04T02:36:32.911Z,51.42
2018-03-04T02:39:01.030Z,54.97
2018-03-04T02:41:29.225Z,49.05
2018-03-04T02:43:57.395Z,55.88
2018-03-04T02:46:25.549Z,50.65
2018-03-04T02:48:53.695Z,58.42
2018-03-04T02:51:22.661Z,52.45
2018-03-04T02:53:50.806Z,53.63
2018-03-04T02:56:18.950Z,61.40
2018-03-04T02:58:47.145Z,57.88
2018-03-04T03:01:15.297Z,69.32
2018-03-04T03:03:43.480Z,58.55
2018-03-04T03:06:11.659Z,51.92
2018-03-04T03:08:39.806Z,62.65
2018-03-04T03:11:08.039Z,63.22
2018-03-04T03:13:36.178Z,64.70
2018-03-04T03:16:04.317Z,56.53
2018-03-04T03:18:33.305Z,52.47
2018-03-04T03:21:02.207Z,62.75
2018-03-04T03:23:30.354Z,55.20
2018-03-04T03:25:59.286Z,50.50
2018-03-04T03:28:27.430Z,51.25
2018-03-04T03:30:56.428Z,52.15
2018-03-04T03:33:24.534Z,55.88
2018-03-04T03:35:52.678Z,68.82
2018-03-04T03:38:20.855Z,54.28
2018-03-04T03:40:49.009Z,57.62
2018-03-04T03:43:18.005Z,57.95
2018-03-04T03:45:46.957Z,50.95
2018-03-04T03:48:15.102Z,60.50
2018-03-04T03:50:43.252Z,59.03
2018-03-04T03:53:12.058Z,73.45
2018-03-04T03:55:40.912Z,64.05
2018-03-04T03:58:09.851Z,60.67
2018-03-04T04:00:38.018Z,64.85
2018-03-04T04:03:06.173Z,59.42
2018-03-04T04:05:34.342Z,61.22
2018-03-04T04:08:02.491Z,77.30
2018-03-04T04:10:31.403Z,59.50
2018-03-04T04:12:59.566Z,47.92
2018-03-04T04:15:27.730Z,75.47
2018-03-04T04:17:56.685Z,52.15
2018-03-04T04:20:24.830Z,56.13
2018-03-04T04:22:53.007Z,61.70
2018-03-04T04:25:21.161Z,63.72
2018-03-04T04:27:49.312Z,57.10
2018-03-04T04:30:18.257Z,58.60
2018-03-04T04:32:46.398Z,59.92
2018-03-04T04:35:14.537Z,59.25
2018-03-04T04:37:43.486Z,62.35
2018-03-04T04:40:11.648Z,56.37
2018-03-04T04:42:39.794Z,78.95
2018-03-04T04:45:07.965Z,63.15
2018-03-04T04:47:36.172Z,59.95
2018-03-04T04:50:04.321Z,61.08
2018-03-04T04:52:32.489Z,59.20
2018-03-04T04:55:00.641Z,56.42
2018-03-04T04:57:29.560Z,63.55
2018-03-04T04:59:57.715Z,63.70
2018-03-04T05:02:25.890Z,58.10
2018-03-04T05:04:54.035Z,53.75
2018-03-04T05:07:22.185Z,65.30
2018-03-04T05:09:50.346Z,54.15
2018-03-04T05:12:18.491Z,56.78
2018-03-04T05:14:47.472Z,54.28
2018-03-04T05:17:15.613Z,63.63
2018-03-04T05:19:43.781Z,58.65
2018-03-04T05:22:12.705Z,50.65
2018-03-04T05:24:40.854Z,62.05
2018-03-04T05:27:09.017Z,59.08
2018-03-04T05:29:37.170Z,63.83
2018-03-04T05:32:05.425Z,59.65
2018-03-04T05:34:33.599Z,60.75
2018-03-04T05:37:01.741Z,50.17
2018-03-04T05:39:30.725Z,66.75
2018-03-04T05:41:59.671Z,58.67
2018-03-04T05:44:28.331Z,58.42
2018-03-04T05:46:56.481Z,51.58
2018-03-04T05:49:24.679Z,64.00
2018-03-04T05:51:53.413Z,59.90
2018-03-04T05:54:21.558Z,62.47
2018-03-04T05:56:49.810Z,64.85
2018-03-04T05:59:17.945Z,62.47
2018-03-04T06:01:46.891Z,71.75
2018-03-04T06:04:15.034Z,62.85
2018-03-04T06:06:43.170Z,56.42
2018-03-04T06:09:11.364Z,59.70
2018-03-04T06:11:40.289Z,57.72
2018-03-04T06:14:08.443Z,67.03
2018-03-04T06:16:36.621Z,54.67
2018-03-04T06:19:04.765Z,58.78
2018-03-04T06:21:32.913Z,58.38
2018-03-04T06:24:01.150Z,52.50
2018-03-04T06:26:29.305Z,52.05
2018-03-04T06:28:57.499Z,58.45
2018-03-04T06:31:25.658Z,55.20
2018-03-04T06:33:53.818Z,56.22
2018-03-04T06:36:21.962Z,53.50
2018-03-04T06:38:50.135Z,55.03
2018-03-04T06:41:18.294Z,60.67
2018-03-04T06:43:46.456Z,47.30
2018-03-04T06:46:14.704Z,57.03
2018-03-04T06:48:42.845Z,56.63
2018-03-04T06:51:11.794Z,55.42
2018-03-04T06:53:40.189Z,54.10
2018-03-04T06:56:08.373Z,59.22
2018-03-04T06:58:37.716Z,58.25
2018-03-04T07:01:05.918Z,53.20
2018-03-04T07:03:34.082Z,62.85
2018-03-04T07:06:02.238Z,52.00
2018-03-04T07:08:30.417Z,54.60
2018-03-04T07:10:58.590Z,55.17
2018-03-04T07:13:26.742Z,50.40
2018-03-04T07:15:54.886Z,50.28
2018-03-04T07:18:23.818Z,53.42
2018-03-04T07:20:51.966Z,61.17
2018-03-04T07:23:20.115Z,46.88
2018-03-04T07:25:48.338Z,54.55
2018-03-04T07:28:16.507Z,57.92
2018-03-04T07:30:44.645Z,51.70
2018-03-04T07:33:13.558Z,65.20
2018-03-04T07:35:42.042Z,53.72
2018-03-04T07:38:10.190Z,52.17
2018-03-04T07:40:39.572Z,55.20
2018-03-04T07:43:08.635Z,50.72
2018-03-04T07:45:36.788Z,56.03
2018-03-04T07:48:04.982Z,73.72
2018-03-04T07:50:33.147Z,57.53
2018-03-04T07:53:01.285Z,50.10
2018-03-04T07:55:29.459Z,60.12
2018-03-04T07:57:57.660Z,52.05
2018-03-04T08:00:25.843Z,50.30
2018-03-04T08:02:54.857Z,43.95
2018-03-04T08:05:23.010Z,53.45
2018-03-04T08:07:51.163Z,54.58
2018-03-04T08:10:19.538Z,63.72
2018-03-04T08:12:47.683Z,60.83
2018-03-04T08:15:16.598Z,63.78
2018-03-04T08:17:44.771Z,56.33
2018-03-04T08:20:12.913Z,62.60
2018-03-04T08:22:41.829Z,49.25
2018-03-04T08:25:27.901Z,55.20
2018-03-04T08:28:14.942Z,64.00
2018-03-04T08:30:43.104Z,48.30
2018-03-04T08:33:11.250Z,51.80
2018-03-04T08:35:40.989Z,49.95
2018-03-04T08:38:09.169Z,57.38
2018-03-04T08:40:37.344Z,56.53
2018-03-04T08:43:05.486Z,54.75
2018-03-04T08:45:34.512Z,55.92
2018-03-04T08:48:02.807Z,52.28
2018-03-04T08:50:31.483Z,52.17
2018-03-04T08:52:59.618Z,58.28
2018-03-04T08:55:28.656Z,58.30
2018-03-04T08:57:56.791Z,55.50
2018-03-04T09:00:24.922Z,58.33
2018-03-04T09:02:53.073Z,71.57
2018-03-04T09:05:21.202Z,57.42
2018-03-04T09:07:50.109Z,57.30
2018-03-04T09:10:18.296Z,64.53
2018-03-04T09:12:46.430Z,51.83
2018-03-04T09:15:15.428Z,59.45
2018-03-04T09:17:44.348Z,61.85
2018-03-04T09:20:12.513Z,57.95
2018-03-04T09:22:40.646Z,65.78
2018-03-04T09:25:08.864Z,57.88
2018-03-04T09:27:37.032Z,72.90
2018-03-04T09:30:05.173Z,66.47
2018-03-04T09:32:34.103Z,68.37
2018-03-04T09:35:02.254Z,61.67
2018-03-04T09:37:30.409Z,61.10
2018-03-04T09:39:59.309Z,82.30
2018-03-04T09:42:28.223Z,92.00
2018-03-04T09:44:56.675Z,98.53
2018-03-04T09:47:25.570Z,64.25
2018-03-04T09:49:54.489Z,73.10
2018-03-04T09:52:22.622Z,60.20
2018-03-04T09:54:51.549Z,72.12
2018-03-04T09:57:19.750Z,59.72
2018-03-04T09:59:47.897Z,79.60
2018-03-04T10:02:16.035Z,62.90
2018-03-04T10:04:44.945Z,58.30
2018-03-04T10:07:13.085Z,73.60
2018-03-04T10:09:42.023Z,72.15
2018-03-04T10:12:10.640Z,66.75
2018-03-04T10:14:38.783Z,66.15
2018-03-04T10:17:06.946Z,66.68
2018-03-04T10:19:35.070Z,67.80
2018-03-04T10:22:03.208Z,59.35
2018-03-04T10:24:31.371Z,75.32
2018-03-04T10:26:59.505Z,71.87
2018-03-04T10:29:28.393Z,68.45
2018-03-04T10:31:57.330Z,61.80
2018-03-04T10:34:25.457Z,61.35
2018-03-04T10:36:54.366Z,67.18
2018-03-04T10:39:22.534Z,63.78
2018-03-04T10:41:50.673Z,72.28
2018-03-04T10:44:19.607Z,63.45
2018-03-04T10:46:47.903Z,79.95
2018-03-04T10:49:16.050Z,67.25
2018-03-04T10:51:44.698Z,67.17
2018-03-04T10:54:12.862Z,70.50
2018-03-04T10:56:41.790Z,70.37
2018-03-04T10:59:09.949Z,80.50
2018-03-04T11:01:41.736Z,73.13
2018-03-04T11:04:09.890Z,71.53
2018-03-04T11:06:38.752Z,78.20
2018-03-04T11:09:07.677Z,76.67
2018-03-04T11:11:35.825Z,76.55
2018-03-04T11:14:03.984Z,87.30
2018-03-04T11:16:32.133Z,70.17
2018-03-04T11:19:00.265Z,82.60
2018-03-04T11:21:28.442Z,69.13
2018-03-04T11:23:56.582Z,73.30
2018-03-04T11:26:26.010Z,70.60
2018-03-04T11:28:54.174Z,76.83
2018-03-04T11:31:22.311Z,70.03
2018-03-04T11:33:50.470Z,72.60
2018-03-04T11:36:18.612Z,73.50
2018-03-04T11:38:46.746Z,68.93
2018-03-04T11:41:14.909Z,70.20
2018-03-04T11:43:43.133Z,76.60
2018-03-04T11:46:11.295Z,85.27
2018-03-04T11:48:39.457Z,82.97
2018-03-04T11:51:07.599Z,85.83
2018-03-04T11:53:35.738Z,75.63
2018-03-04T11:56:03.905Z,86.20
2018-03-04T11:58:32.064Z,84.43
2018-03-04T12:01:00.226Z,78.30
2018-03-04T12:03:28.361Z,86.40
2018-03-04T12:05:56.512Z,81.43
2018-03-04T12:08:24.680Z,87.83
2018-03-04T12:10:52.824Z,79.03
2018-03-04T12:13:21.062Z,90.57
2018-03-04T12:15:49.214Z,78.80
2018-03-04T12:18:17.386Z,74.33
2018-03-04T12:20:45.517Z,79.83
2018-03-04T12:23:13.677Z,77.47
2018-03-04T12:25:41.842Z,83.90
2018-03-04T12:28:10.760Z,81.97
2018-03-04T12:30:39.614Z,75.73
2018-03-04T12:33:07.782Z,86.23
2018-03-04T12:35:36.696Z,87.83
2018-03-04T12:38:04.834Z,72.90
2018-03-04T12:40:32.996Z,79.30
2018-03-04T12:43:01.121Z,82.70
2018-03-04T12:45:29.261Z,80.60
2018-03-04T12:47:58.195Z,89.97
2018-03-04T12:50:26.429Z,77.73
2018-03-04T12:52:54.586Z,79.70
2018-03-04T12:55:22.750Z,80.33
2018-03-04T12:57:50.915Z,83.03
2018-03-04T13:00:19.162Z,82.13
2018-03-04T13:02:47.374Z,80.23
2018-03-04T13:05:15.486Z,71.97
2018-03-04T13:07:43.622Z,79.20
2018-03-04T13:10:11.794Z,80.00
2018-03-04T13:12:39.934Z,78.73
2018-03-04T13:15:08.065Z,86.23
2018-03-04T13:17:37.017Z,83.33
2018-03-04T13:20:05.158Z,74.73
2018-03-04T13:22:33.318Z,75.73
2018-03-04T13:25:01.499Z,77.70
2018-03-04T13:27:29.634Z,71.37
2018-03-04T13:29:57.814Z,79.80
2018-03-04T13:32:27.014Z,81.77
2018-03-04T13:34:55.915Z,78.00
2018-03-04T13:37:24.086Z,75.27
2018-03-04T13:39:52.223Z,73.03
2018-03-04T13:42:20.453Z,81.23
2018-03-04T13:44:49.134Z,69.70
2018-03-04T13:47:17.295Z,81.60
2018-03-04T13:49:45.474Z,77.00
2018-03-04T13:52:13.606Z,68.50
2018-03-04T13:54:41.739Z,73.30
2018-03-04T13:57:09.898Z,73.40
2018-03-04T13:59:38.042Z,77.27
2018-03-04T14:02:07.364Z,70.40
2018-03-04T14:04:35.787Z,70.97
2018-03-04T14:07:03.923Z,69.83
2018-03-04T14:09:32.057Z,71.77
2018-03-04T14:12:01.000Z,79.30
2018-03-04T14:14:29.144Z,76.80
2018-03-04T14:16:57.282Z,75.43
2018-03-04T14:19:25.447Z,79.97
2018-03-04T14:21:53.578Z,71.57
2018-03-04T14:24:21.965Z,69.70
2018-03-04T14:26:50.127Z,71.97
2018-03-04T14:29:18.261Z,72.90
2018-03-04T14:31:47.173Z,76.90
2018-03-04T14:34:15.359Z,70.77
2018-03-04T14:36:43.530Z,69.57
2018-03-04T14:39:12.437Z,82.73
2018-03-04T14:41:40.572Z,78.03
2018-03-04T14:44:08.780Z,77.00
2018-03-04T14:46:36.932Z,73.77
2018-03-04T14:49:05.063Z,71.80
2018-03-04T14:51:33.222Z,68.47
2018-03-04T14:54:01.368Z,74.63
2018-03-04T14:56:29.502Z,80.20
2018-03-04T14:58:58.429Z,80.77
2018-03-04T15:01:26.591Z,72.07
2018-03-04T15:03:54.733Z,69.60
2018-03-04T15:06:23.757Z,78.63
2018-03-04T15:08:51.889Z,77.17
2018-03-04T15:11:21.155Z,72.97
2018-03-04T15:13:49.314Z,78.10
2018-03-04T15:16:17.485Z,69.63
2018-03-04T15:18:45.623Z,87.30
2018-03-04T15:21:13.766Z,79.67
2018-03-04T15:23:41.926Z,92.53
2018-03-04T15:26:10.171Z,77.10
2018-03-04T15:28:38.310Z,78.87
2018-03-04T15:31:06.465Z,83.23
2018-03-04T15:33:35.383Z,77.57
2018-03-04T15:36:03.530Z,69.33
2018-03-04T15:38:32.457Z,81.07
2018-03-04T15:41:00.637Z,82.00
2018-03-04T15:43:28.776Z,82.03
2018-03-04T15:45:57.718Z,83.47
2018-03-04T15:48:25.889Z,77.43
2018-03-04T15:50:54.039Z,87.60
2018-03-04T15:53:22.174Z,78.37
2018-03-04T15:55:51.085Z,82.43
2018-03-04T15:58:19.282Z,81.37
2018-03-04T16:00:47.413Z,86.53
2018-03-04T16:03:16.322Z,99.97
2018-03-04T16:05:44.491Z,101.43
2018-03-04T16:08:12.630Z,97.83
2018-03-04T16:10:40.761Z,90.17
2018-03-04T16:13:09.005Z,84.10
2018-03-04T16:15:37.921Z,77.27
2018-03-04T16:18:06.255Z,73.17
2018-03-04T16:20:34.362Z,82.30
2018-03-04T16:23:02.494Z,80.47
2018-03-04T16:25:31.420Z,88.53
2018-03-04T16:27:59.558Z,83.67
2018-03-04T16:30:28.482Z,79.10
2018-03-04T16:32:56.625Z,79.37
2018-03-04T16:35:25.534Z,83.68
2018-03-04T16:37:53.685Z,70.03
2018-03-04T16:40:22.586Z,79.82
2018-03-04T16:42:50.732Z,76.50
2018-03-04T16:45:18.894Z,80.55
2018-03-04T16:47:47.026Z,74.65
2018-03-04T16:50:15.154Z,76.65
2018-03-04T16:52:43.308Z,82.07
2018-03-04T16:55:12.323Z,72.20
2018-03-04T16:57:40.491Z,75.65
2018-03-04T17:00:08.622Z,65.30
2018-03-04T17:02:36.759Z,83.47
2018-03-04T17:05:05.682Z,97.68
2018-03-04T17:07:33.822Z,75.28
2018-03-04T17:10:02.714Z,70.97
2018-03-04T17:12:30.890Z,72.50
2018-03-04T17:14:59.042Z,70.45
2018-03-04T17:17:27.978Z,66.85
2018-03-04T17:19:56.154Z,53.55
2018-03-04T17:22:24.285Z,60.33
2018-03-04T17:24:53.201Z,62.45
2018-03-04T17:27:21.378Z,60.58
2018-03-04T17:29:49.508Z,54.25
2018-03-04T17:32:18.346Z,64.35
2018-03-04T17:34:46.574Z,70.00
2018-03-04T17:37:14.713Z,62.62
2018-03-04T17:39:42.846Z,64.93
2018-03-04T17:42:11.019Z,59.90
2018-03-04T17:44:39.231Z,71.50
2018-03-04T17:47:07.383Z,64.97
2018-03-04T17:49:35.677Z,57.00
2018-03-04T17:52:03.852Z,53.45
2018-03-04T17:54:32.002Z,61.00
2018-03-04T17:57:00.136Z,68.07
2018-03-04T17:59:29.070Z,57.70
2018-03-04T18:01:57.197Z,57.80
2018-03-04T18:04:26.134Z,53.03
2018-03-04T18:06:54.296Z,64.30
2018-03-04T18:09:22.479Z,56.47
2018-03-04T18:11:50.615Z,60.83
2018-03-04T19:36:17.224Z,61.67
2018-03-04T19:38:45.354Z,66.37
2018-03-04T19:41:14.182Z,69.12
2018-03-04T19:43:42.359Z,78.68
2018-03-04T19:46:10.490Z,68.93
2018-03-04T19:48:38.622Z,77.55
2018-03-04T19:51:06.774Z,72.72
2018-03-04T19:53:35.472Z,67.60
2018-03-04T19:56:03.711Z,77.57
2018-03-04T19:58:31.928Z,72.72
2018-03-04T20:01:00.071Z,73.15
2018-03-04T20:03:28.334Z,75.90
2018-03-04T20:05:56.465Z,71.32
2018-03-04T20:08:25.378Z,80.80
2018-03-04T20:10:53.566Z,70.40
2018-03-04T20:13:21.738Z,84.85
2018-03-04T20:15:49.915Z,68.65
2018-03-04T20:18:18.054Z,77.78
2018-03-04T20:20:46.198Z,69.93
2018-03-04T20:23:14.350Z,69.90
2018-03-04T20:25:42.481Z,78.20
2018-03-04T20:28:10.614Z,83.00
2018-03-04T20:30:38.885Z,92.20
2018-03-04T20:33:07.029Z,108.95
2018-03-04T20:35:35.177Z,112.88
2018-03-04T20:38:03.332Z,133.00
2018-03-04T20:40:32.225Z,113.85
2018-03-04T20:43:01.142Z,112.05
2018-03-04T20:45:29.327Z,90.32
2018-03-04T20:47:57.487Z,91.82
2018-03-04T20:50:25.663Z,103.07
2018-03-04T20:52:53.838Z,95.75
2018-03-04T20:55:21.973Z,125.40
2018-03-04T20:57:50.874Z,99.20
2018-03-04T21:00:19.034Z,117.55
2018-03-04T21:02:47.939Z,103.43
2018-03-04T21:05:16.069Z,105.32
2018-03-04T21:07:44.316Z,91.15
2018-03-04T21:10:12.455Z,84.13
2018-03-04T21:12:40.605Z,104.32
2018-03-04T21:15:09.521Z,98.25
2018-03-04T21:17:37.671Z,107.75
2018-03-04T21:20:06.592Z,107.28
2018-03-04T21:22:34.774Z,96.35
2018-03-04T21:25:02.961Z,82.47
2018-03-04T21:27:31.107Z,85.80
2018-03-04T21:29:59.278Z,86.65
2018-03-04T21:32:27.478Z,92.12
2018-03-04T21:34:55.613Z,95.60
2018-03-04T21:37:23.786Z,91.72
2018-03-04T21:39:51.917Z,96.75
2018-03-04T21:42:20.047Z,88.80
2018-03-04T21:44:48.250Z,84.57
2018-03-04T21:47:16.407Z,97.05
2018-03-04T21:49:44.558Z,76.75
2018-03-04T21:52:12.738Z,75.32
2018-03-04T21:54:41.022Z,74.47
2018-03-04T21:57:09.222Z,85.78
2018-03-04T21:59:37.359Z,88.45
2018-03-04T22:02:05.491Z,83.03
2018-03-04T22:04:33.666Z,84.75
2018-03-04T22:07:01.802Z,82.62
2018-03-04T22:09:29.951Z,76.97
2018-03-04T22:11:58.106Z,68.90
2018-03-04T22:14:26.236Z,71.82
2018-03-04T22:16:54.374Z,76.75
2018-03-04T22:19:22.533Z,76.78
2018-03-04T22:21:50.665Z,70.93
2018-03-04T22:24:18.801Z,72.85
2018-03-04T22:26:46.945Z,72.87
2018-03-04T22:29:15.098Z,75.57
2018-03-04T22:31:44.026Z,67.72
2018-03-04T22:34:12.182Z,69.45
2018-03-04T22:36:40.321Z,83.78
2018-03-04T22:39:08.542Z,62.42
2018-03-04T22:41:36.754Z,66.93
2018-03-04T22:44:04.882Z,70.32
2018-03-04T22:46:33.016Z,64.90
2018-03-04T22:49:01.198Z,84.47
2018-03-04T22:51:30.122Z,70.20
2018-03-04T22:53:58.277Z,74.55
2018-03-04T22:56:26.426Z,94.68
2018-03-04T22:58:55.322Z,77.40
2018-03-04T23:01:24.217Z,66.75
2018-03-04T23:03:53.246Z,79.45
2018-03-04T23:06:21.378Z,66.78
2018-03-04T23:08:50.290Z,78.05
2018-03-04T23:11:18.586Z,74.65
2018-03-04T23:13:46.715Z,73.37
2018-03-04T23:16:15.610Z,57.00
2018-03-04T23:19:00.226Z,73.00
2018-03-04T23:21:28.356Z,65.95
2018-03-04T23:23:56.546Z,87.60
2018-03-04T23:26:24.698Z,78.32
2018-03-04T23:28:52.835Z,66.82
2018-03-04T23:31:21.002Z,73.72
2018-03-04T23:33:49.181Z,70.87
2018-03-04T23:36:17.315Z,66.50
2018-03-04T23:38:45.456Z,70.43
2018-03-04T23:41:13.610Z,64.15
2018-03-04T23:43:42.546Z,66.47
2018-03-04T23:46:10.683Z,73.68
2018-03-04T23:48:39.593Z,68.87
2018-03-04T23:51:07.725Z,75.07
2018-03-04T23:53:35.878Z,64.68
2018-03-04T23:56:04.010Z,72.20
2018-03-04T23:58:32.149Z,64.05
